sensor_id;sensor_type;location;lat;lon;timestamp;temperature;humidity
30134;DHT22;16946;49.984;10.672;2023-10-31T00:00:19;13.20;99.90
30134;DHT22;16946;49.984;10.672;2023-10-31T00:00:50;13.10;99.90
30134;DHT22;16946;49.984;10.672;2023-10-31T00:01:21;13.10;99.90
30134;DHT22;16946;49.984;10.672;2023-10-31T00:01:51;13.10;99.90
30134;DHT22;16946;49.984;10.672;2023-10-31T00:02:22;13.10;99.90
30134;DHT22;16946;49.984;10.672;2023-10-31T00:02:52;13.10;99.90
30134;DHT22;16946;49.984;10.672;2023-10-31T00:03:23;13.00;99.90
30134;DHT22;16946;49.984;10.672;2023-10-31T00:03:53;13.00;99.90
30134;DHT22;16946;49.984;10.672;2023-10-31T00:04:24;13.00;99.90
30134;DHT22;16946;49.984;10.672;2023-10-31T00:04:55;13.00;99.90
30134;DHT22;16946;49.984;10.672;2023-10-31T00:05:25;13.00;99.90
30134;DHT22;16946;49.984;10.672;2023-10-31T00:05:56;13.00;99.90
30134;DHT22;16946;49.984;10.672;2023-10-31T00:06:26;13.00;99.90
30134;DHT22;16946;49.984;10.672;2023-10-31T00:06:57;13.00;99.90
30134;DHT22;16946;49.984;10.672;2023-10-31T00:07:27;13.00;99.90
30134;DHT22;16946;49.984;10.672;2023-10-31T00:07:58;13.00;99.90
30134;DHT22;16946;49.984;10.672;2023-10-31T00:08:28;13.00;99.90
30134;DHT22;16946;49.984;10.672;2023-10-31T00:08:59;13.10;99.90
30134;DHT22;16946;49.984;10.672;2023-10-31T00:09:29;13.10;99.90
30134;DHT22;16946;49.984;10.672;2023-10-31T00:10:00;13.10;99.90
30134;DHT22;16946;49.984;10.672;2023-10-31T00:10:31;13.00;99.90
30134;DHT22;16946;49.984;10.672;2023-10-31T00:11:01;13.00;99.90
30134;DHT22;16946;49.984;10.672;2023-10-31T00:11:32;13.00;99.90
30134;DHT22;16946;49.984;10.672;2023-10-31T00:12:03;13.00;99.90
30134;DHT22;16946;49.984;10.672;2023-10-31T00:12:33;13.00;99.90
30134;DHT22;16946;49.984;10.672;2023-10-31T00:13:04;13.00;99.90
30134;DHT22;16946;49.984;10.672;2023-10-31T00:13:34;13.10;99.90
30134;DHT22;16946;49.984;10.672;2023-10-31T00:14:05;13.10;99.90
30134;DHT22;16946;49.984;10.672;2023-10-31T00:14:36;13.10;99.90
30134;DHT22;16946;49.984;10.672;2023-10-31T00:15:06;13.20;99.90
30134;DHT22;16946;49.984;10.672;2023-10-31T00:15:37;13.10;99.90
30134;DHT22;16946;49.984;10.672;2023-10-31T00:16:07;13.10;99.90
30134;DHT22;16946;49.984;10.672;2023-10-31T00:16:38;13.10;99.90
30134;DHT22;16946;49.984;10.672;2023-10-31T00:17:08;13.10;99.90
30134;DHT22;16946;49.984;10.672;2023-10-31T00:17:39;13.10;99.90
30134;DHT22;16946;49.984;10.672;2023-10-31T00:18:09;13.10;99.90
30134;DHT22;16946;49.984;10.672;2023-10-31T00:18:40;13.10;99.90
30134;DHT22;16946;49.984;10.672;2023-10-31T00:19:10;13.10;99.90
30134;DHT22;16946;49.984;10.672;2023-10-31T00:19:41;13.10;99.90
30134;DHT22;16946;49.984;10.672;2023-10-31T00:20:11;13.20;99.90
30134;DHT22;16946;49.984;10.672;2023-10-31T00:20:42;13.20;99.90
30134;DHT22;16946;49.984;10.672;2023-10-31T00:21:13;13.20;99.90
30134;DHT22;16946;49.984;10.672;2023-10-31T00:21:43;13.20;99.90
30134;DHT22;16946;49.984;10.672;2023-10-31T00:22:14;13.20;99.90
30134;DHT22;16946;49.984;10.672;2023-10-31T00:22:44;13.30;99.90
30134;DHT22;16946;49.984;10.672;2023-10-31T00:23:15;13.30;99.90
30134;DHT22;16946;49.984;10.672;2023-10-31T00:23:47;13.30;99.90
30134;DHT22;16946;49.984;10.672;2023-10-31T00:24:17;13.30;99.90
30134;DHT22;16946;49.984;10.672;2023-10-31T00:24:48;13.20;99.90
30134;DHT22;16946;49.984;10.672;2023-10-31T00:25:18;13.20;99.90
30134;DHT22;16946;49.984;10.672;2023-10-31T00:25:49;13.20;99.90
30134;DHT22;16946;49.984;10.672;2023-10-31T00:26:20;13.10;99.90
30134;DHT22;16946;49.984;10.672;2023-10-31T00:26:51;13.20;99.90
30134;DHT22;16946;49.984;10.672;2023-10-31T00:27:21;13.20;99.90
30134;DHT22;16946;49.984;10.672;2023-10-31T00:27:52;13.20;99.90
30134;DHT22;16946;49.984;10.672;2023-10-31T00:28:22;13.20;99.90
30134;DHT22;16946;49.984;10.672;2023-10-31T00:28:53;13.20;99.90
30134;DHT22;16946;49.984;10.672;2023-10-31T00:29:24;13.20;99.90
30134;DHT22;16946;49.984;10.672;2023-10-31T00:29:54;13.10;99.90
30134;DHT22;16946;49.984;10.672;2023-10-31T00:30:25;13.20;99.90
30134;DHT22;16946;49.984;10.672;2023-10-31T00:30:55;13.20;99.90
30134;DHT22;16946;49.984;10.672;2023-10-31T00:31:26;13.20;99.90
30134;DHT22;16946;49.984;10.672;2023-10-31T00:31:56;13.30;99.90
30134;DHT22;16946;49.984;10.672;2023-10-31T00:32:27;13.30;99.90
30134;DHT22;16946;49.984;10.672;2023-10-31T00:32:57;13.20;99.90
30134;DHT22;16946;49.984;10.672;2023-10-31T00:33:28;13.20;99.90
30134;DHT22;16946;49.984;10.672;2023-10-31T00:33:58;13.20;99.90
30134;DHT22;16946;49.984;10.672;2023-10-31T00:34:29;13.20;99.90
30134;DHT22;16946;49.984;10.672;2023-10-31T00:34:59;13.20;99.90
30134;DHT22;16946;49.984;10.672;2023-10-31T00:35:30;13.20;99.90
30134;DHT22;16946;49.984;10.672;2023-10-31T00:36:01;13.20;99.90
30134;DHT22;16946;49.984;10.672;2023-10-31T00:36:32;13.10;99.90
30134;DHT22;16946;49.984;10.672;2023-10-31T00:37:03;13.10;99.90
30134;DHT22;16946;49.984;10.672;2023-10-31T00:37:33;13.10;99.90
30134;DHT22;16946;49.984;10.672;2023-10-31T00:38:04;13.10;99.90
30134;DHT22;16946;49.984;10.672;2023-10-31T00:38:34;13.10;99.90
30134;DHT22;16946;49.984;10.672;2023-10-31T00:39:05;13.10;99.90
30134;DHT22;16946;49.984;10.672;2023-10-31T00:39:35;13.00;99.90
30134;DHT22;16946;49.984;10.672;2023-10-31T00:40:07;13.00;99.90
30134;DHT22;16946;49.984;10.672;2023-10-31T00:40:37;13.00;99.90
30134;DHT22;16946;49.984;10.672;2023-10-31T00:41:08;13.00;99.90
30134;DHT22;16946;49.984;10.672;2023-10-31T00:41:43;13.00;99.90
30134;DHT22;16946;49.984;10.672;2023-10-31T00:42:15;13.00;99.90
30134;DHT22;16946;49.984;10.672;2023-10-31T00:42:45;13.00;99.90
30134;DHT22;16946;49.984;10.672;2023-10-31T00:43:16;13.00;99.90
30134;DHT22;16946;49.984;10.672;2023-10-31T00:43:46;13.00;99.90
30134;DHT22;16946;49.984;10.672;2023-10-31T00:44:17;13.00;99.90
30134;DHT22;16946;49.984;10.672;2023-10-31T00:44:47;13.00;99.90
30134;DHT22;16946;49.984;10.672;2023-10-31T00:45:18;13.00;99.90
30134;DHT22;16946;49.984;10.672;2023-10-31T00:45:48;13.00;99.90
30134;DHT22;16946;49.984;10.672;2023-10-31T00:46:19;13.00;99.90
30134;DHT22;16946;49.984;10.672;2023-10-31T00:46:49;13.00;99.90
30134;DHT22;16946;49.984;10.672;2023-10-31T00:47:20;13.10;99.90
30134;DHT22;16946;49.984;10.672;2023-10-31T00:47:50;13.10;99.90
30134;DHT22;16946;49.984;10.672;2023-10-31T00:48:21;13.10;99.90
30134;DHT22;16946;49.984;10.672;2023-10-31T00:48:51;13.00;99.90
30134;DHT22;16946;49.984;10.672;2023-10-31T00:49:22;13.10;99.90
30134;DHT22;16946;49.984;10.672;2023-10-31T00:49:52;13.10;99.90
30134;DHT22;16946;49.984;10.672;2023-10-31T00:50:23;13.10;99.90
30134;DHT22;16946;49.984;10.672;2023-10-31T00:50:54;13.20;99.90
30134;DHT22;16946;49.984;10.672;2023-10-31T00:51:24;13.10;99.90
30134;DHT22;16946;49.984;10.672;2023-10-31T00:51:55;13.10;99.90
30134;DHT22;16946;49.984;10.672;2023-10-31T00:52:25;13.10;99.90
30134;DHT22;16946;49.984;10.672;2023-10-31T00:52:56;13.10;99.90
30134;DHT22;16946;49.984;10.672;2023-10-31T00:53:26;13.10;99.90
30134;DHT22;16946;49.984;10.672;2023-10-31T00:53:56;13.10;99.90
30134;DHT22;16946;49.984;10.672;2023-10-31T00:54:27;13.10;99.90
30134;DHT22;16946;49.984;10.672;2023-10-31T00:54:58;13.10;99.90
30134;DHT22;16946;49.984;10.672;2023-10-31T00:55:28;13.10;99.90
30134;DHT22;16946;49.984;10.672;2023-10-31T00:55:59;13.10;99.90
30134;DHT22;16946;49.984;10.672;2023-10-31T00:56:29;13.10;99.90
30134;DHT22;16946;49.984;10.672;2023-10-31T00:57:00;13.10;99.90
30134;DHT22;16946;49.984;10.672;2023-10-31T00:57:30;13.10;99.90
30134;DHT22;16946;49.984;10.672;2023-10-31T00:58:01;13.10;99.90
30134;DHT22;16946;49.984;10.672;2023-10-31T00:58:31;13.10;99.90
30134;DHT22;16946;49.984;10.672;2023-10-31T00:59:02;13.10;99.90
30134;DHT22;16946;49.984;10.672;2023-10-31T00:59:32;13.10;99.90
30134;DHT22;16946;49.984;10.672;2023-10-31T01:00:03;13.00;99.90
30134;DHT22;16946;49.984;10.672;2023-10-31T01:00:34;13.10;99.90
30134;DHT22;16946;49.984;10.672;2023-10-31T01:01:07;13.00;99.90
30134;DHT22;16946;49.984;10.672;2023-10-31T01:01:38;13.10;99.90
30134;DHT22;16946;49.984;10.672;2023-10-31T01:02:08;13.00;99.90
30134;DHT22;16946;49.984;10.672;2023-10-31T01:02:39;13.00;99.90
30134;DHT22;16946;49.984;10.672;2023-10-31T01:03:10;13.00;99.90
30134;DHT22;16946;49.984;10.672;2023-10-31T01:03:41;13.10;99.90
30134;DHT22;16946;49.984;10.672;2023-10-31T01:04:12;13.10;99.90
30134;DHT22;16946;49.984;10.672;2023-10-31T01:04:42;13.10;99.90
30134;DHT22;16946;49.984;10.672;2023-10-31T01:05:13;13.10;99.90
30134;DHT22;16946;49.984;10.672;2023-10-31T01:05:43;13.10;99.90
30134;DHT22;16946;49.984;10.672;2023-10-31T01:06:14;13.20;99.90
30134;DHT22;16946;49.984;10.672;2023-10-31T01:06:44;13.20;99.90
30134;DHT22;16946;49.984;10.672;2023-10-31T01:07:15;13.10;99.90
30134;DHT22;16946;49.984;10.672;2023-10-31T01:07:47;13.10;99.90
30134;DHT22;16946;49.984;10.672;2023-10-31T01:08:18;13.20;99.90
30134;DHT22;16946;49.984;10.672;2023-10-31T01:08:48;13.10;99.90
30134;DHT22;16946;49.984;10.672;2023-10-31T01:09:19;13.10;99.90
30134;DHT22;16946;49.984;10.672;2023-10-31T01:09:49;13.10;99.90
30134;DHT22;16946;49.984;10.672;2023-10-31T01:10:20;13.10;99.90
30134;DHT22;16946;49.984;10.672;2023-10-31T01:10:51;13.10;99.90
30134;DHT22;16946;49.984;10.672;2023-10-31T01:11:21;13.10;99.90
30134;DHT22;16946;49.984;10.672;2023-10-31T01:11:51;13.10;99.90
30134;DHT22;16946;49.984;10.672;2023-10-31T01:12:22;13.10;99.90
30134;DHT22;16946;49.984;10.672;2023-10-31T01:12:53;13.10;99.90
30134;DHT22;16946;49.984;10.672;2023-10-31T01:13:23;13.10;99.90
30134;DHT22;16946;49.984;10.672;2023-10-31T01:13:54;13.00;99.90
30134;DHT22;16946;49.984;10.672;2023-10-31T01:14:24;13.00;99.90
30134;DHT22;16946;49.984;10.672;2023-10-31T01:14:55;13.00;99.90
30134;DHT22;16946;49.984;10.672;2023-10-31T01:15:25;13.00;99.90
30134;DHT22;16946;49.984;10.672;2023-10-31T01:15:56;13.00;99.90
30134;DHT22;16946;49.984;10.672;2023-10-31T01:16:26;13.00;99.90
30134;DHT22;16946;49.984;10.672;2023-10-31T01:16:57;13.00;99.90
30134;DHT22;16946;49.984;10.672;2023-10-31T01:17:27;13.00;99.90
30134;DHT22;16946;49.984;10.672;2023-10-31T01:17:58;13.00;99.90
30134;DHT22;16946;49.984;10.672;2023-10-31T01:18:28;13.00;99.90
30134;DHT22;16946;49.984;10.672;2023-10-31T01:18:59;13.00;99.90
30134;DHT22;16946;49.984;10.672;2023-10-31T01:19:29;13.00;99.90
30134;DHT22;16946;49.984;10.672;2023-10-31T01:20:00;12.90;99.90
30134;DHT22;16946;49.984;10.672;2023-10-31T01:20:30;12.90;99.90
30134;DHT22;16946;49.984;10.672;2023-10-31T01:21:01;12.90;99.90
30134;DHT22;16946;49.984;10.672;2023-10-31T01:21:31;12.90;99.90
30134;DHT22;16946;49.984;10.672;2023-10-31T01:22:02;12.90;99.90
30134;DHT22;16946;49.984;10.672;2023-10-31T01:22:32;12.90;99.90
30134;DHT22;16946;49.984;10.672;2023-10-31T01:23:03;12.90;99.90
30134;DHT22;16946;49.984;10.672;2023-10-31T01:23:34;12.90;99.90
30134;DHT22;16946;49.984;10.672;2023-10-31T01:24:04;13.00;99.90
30134;DHT22;16946;49.984;10.672;2023-10-31T01:24:35;12.90;99.90
30134;DHT22;16946;49.984;10.672;2023-10-31T01:25:06;12.90;99.90
30134;DHT22;16946;49.984;10.672;2023-10-31T01:25:36;12.90;99.90
30134;DHT22;16946;49.984;10.672;2023-10-31T01:26:07;12.90;99.90
30134;DHT22;16946;49.984;10.672;2023-10-31T01:26:37;12.90;99.90
30134;DHT22;16946;49.984;10.672;2023-10-31T01:27:08;12.90;99.90
30134;DHT22;16946;49.984;10.672;2023-10-31T01:27:38;12.90;99.90
30134;DHT22;16946;49.984;10.672;2023-10-31T01:28:09;12.90;99.90
30134;DHT22;16946;49.984;10.672;2023-10-31T01:28:39;12.90;99.90
30134;DHT22;16946;49.984;10.672;2023-10-31T01:29:10;12.80;99.90
30134;DHT22;16946;49.984;10.672;2023-10-31T01:29:40;12.80;99.90
30134;DHT22;16946;49.984;10.672;2023-10-31T01:30:11;12.80;99.90
30134;DHT22;16946;49.984;10.672;2023-10-31T01:30:42;12.80;99.90
30134;DHT22;16946;49.984;10.672;2023-10-31T01:31:12;12.80;99.90
30134;DHT22;16946;49.984;10.672;2023-10-31T01:31:43;12.80;99.90
30134;DHT22;16946;49.984;10.672;2023-10-31T01:32:14;12.90;99.90
30134;DHT22;16946;49.984;10.672;2023-10-31T01:32:45;12.90;99.90
30134;DHT22;16946;49.984;10.672;2023-10-31T01:33:16;12.90;99.90
30134;DHT22;16946;49.984;10.672;2023-10-31T01:33:46;12.90;99.90
30134;DHT22;16946;49.984;10.672;2023-10-31T01:34:17;12.90;99.90
30134;DHT22;16946;49.984;10.672;2023-10-31T01:34:47;12.90;99.90
30134;DHT22;16946;49.984;10.672;2023-10-31T01:35:18;12.90;99.90
30134;DHT22;16946;49.984;10.672;2023-10-31T01:35:48;12.90;99.90
30134;DHT22;16946;49.984;10.672;2023-10-31T01:36:19;12.90;99.90
30134;DHT22;16946;49.984;10.672;2023-10-31T01:36:54;12.90;99.90
30134;DHT22;16946;49.984;10.672;2023-10-31T01:37:24;12.90;99.90
30134;DHT22;16946;49.984;10.672;2023-10-31T01:37:55;12.80;99.90
30134;DHT22;16946;49.984;10.672;2023-10-31T01:38:25;12.80;99.90
30134;DHT22;16946;49.984;10.672;2023-10-31T01:38:56;12.80;99.90
30134;DHT22;16946;49.984;10.672;2023-10-31T01:39:26;12.80;99.90
30134;DHT22;16946;49.984;10.672;2023-10-31T01:39:57;12.80;99.90
30134;DHT22;16946;49.984;10.672;2023-10-31T01:40:27;12.80;99.90
30134;DHT22;16946;49.984;10.672;2023-10-31T01:40:58;12.80;99.90
30134;DHT22;16946;49.984;10.672;2023-10-31T01:41:28;12.80;99.90
30134;DHT22;16946;49.984;10.672;2023-10-31T01:41:59;12.80;99.90
30134;DHT22;16946;49.984;10.672;2023-10-31T01:42:29;12.70;99.90
30134;DHT22;16946;49.984;10.672;2023-10-31T01:43:00;12.70;99.90
30134;DHT22;16946;49.984;10.672;2023-10-31T01:43:32;12.70;99.90
30134;DHT22;16946;49.984;10.672;2023-10-31T01:44:02;12.70;99.90
30134;DHT22;16946;49.984;10.672;2023-10-31T01:44:33;12.70;99.90
30134;DHT22;16946;49.984;10.672;2023-10-31T01:45:04;12.70;99.90
30134;DHT22;16946;49.984;10.672;2023-10-31T01:45:35;12.70;99.90
30134;DHT22;16946;49.984;10.672;2023-10-31T01:46:05;12.60;99.90
30134;DHT22;16946;49.984;10.672;2023-10-31T01:46:36;12.60;99.90
30134;DHT22;16946;49.984;10.672;2023-10-31T01:47:06;12.60;99.90
30134;DHT22;16946;49.984;10.672;2023-10-31T01:47:37;12.60;99.90
30134;DHT22;16946;49.984;10.672;2023-10-31T01:48:08;12.60;99.90
30134;DHT22;16946;49.984;10.672;2023-10-31T01:48:38;12.60;99.90
30134;DHT22;16946;49.984;10.672;2023-10-31T01:49:09;12.60;99.90
30134;DHT22;16946;49.984;10.672;2023-10-31T01:49:40;12.60;99.90
30134;DHT22;16946;49.984;10.672;2023-10-31T01:50:11;12.60;99.90
30134;DHT22;16946;49.984;10.672;2023-10-31T01:50:41;12.60;99.90
30134;DHT22;16946;49.984;10.672;2023-10-31T01:51:13;12.60;99.90
30134;DHT22;16946;49.984;10.672;2023-10-31T01:51:45;12.60;99.90
30134;DHT22;16946;49.984;10.672;2023-10-31T01:52:16;12.60;99.90
30134;DHT22;16946;49.984;10.672;2023-10-31T01:52:46;12.60;99.90
30134;DHT22;16946;49.984;10.672;2023-10-31T01:53:18;12.60;99.90
30134;DHT22;16946;49.984;10.672;2023-10-31T01:53:49;12.60;99.90
30134;DHT22;16946;49.984;10.672;2023-10-31T01:54:19;12.50;99.90
30134;DHT22;16946;49.984;10.672;2023-10-31T01:54:50;12.50;99.90
30134;DHT22;16946;49.984;10.672;2023-10-31T01:55:20;12.50;99.90
30134;DHT22;16946;49.984;10.672;2023-10-31T01:55:53;12.50;99.90
30134;DHT22;16946;49.984;10.672;2023-10-31T01:56:25;12.60;99.90
30134;DHT22;16946;49.984;10.672;2023-10-31T01:56:56;12.60;99.90
30134;DHT22;16946;49.984;10.672;2023-10-31T01:57:28;12.60;99.90
30134;DHT22;16946;49.984;10.672;2023-10-31T01:57:59;12.60;99.90
30134;DHT22;16946;49.984;10.672;2023-10-31T01:58:31;12.60;99.90
30134;DHT22;16946;49.984;10.672;2023-10-31T01:59:05;12.60;99.90
30134;DHT22;16946;49.984;10.672;2023-10-31T01:59:35;12.60;99.90
30134;DHT22;16946;49.984;10.672;2023-10-31T02:00:06;12.60;99.90
30134;DHT22;16946;49.984;10.672;2023-10-31T02:00:40;12.60;99.90
30134;DHT22;16946;49.984;10.672;2023-10-31T02:01:13;12.60;99.90
30134;DHT22;16946;49.984;10.672;2023-10-31T02:01:44;12.60;99.90
30134;DHT22;16946;49.984;10.672;2023-10-31T02:02:15;12.60;99.90
30134;DHT22;16946;49.984;10.672;2023-10-31T02:02:46;12.60;99.90
30134;DHT22;16946;49.984;10.672;2023-10-31T02:03:17;12.60;99.90
30134;DHT22;16946;49.984;10.672;2023-10-31T02:03:48;12.60;99.90
30134;DHT22;16946;49.984;10.672;2023-10-31T02:04:19;12.50;99.90
30134;DHT22;16946;49.984;10.672;2023-10-31T02:04:51;12.60;99.90
30134;DHT22;16946;49.984;10.672;2023-10-31T02:05:21;12.50;99.90
30134;DHT22;16946;49.984;10.672;2023-10-31T02:05:52;12.60;99.90
30134;DHT22;16946;49.984;10.672;2023-10-31T02:06:22;12.50;99.90
30134;DHT22;16946;49.984;10.672;2023-10-31T02:06:53;12.60;99.90
30134;DHT22;16946;49.984;10.672;2023-10-31T02:07:23;12.60;99.90
30134;DHT22;16946;49.984;10.672;2023-10-31T02:07:54;12.50;99.90
30134;DHT22;16946;49.984;10.672;2023-10-31T02:08:25;12.50;99.90
30134;DHT22;16946;49.984;10.672;2023-10-31T02:08:56;12.60;99.90
30134;DHT22;16946;49.984;10.672;2023-10-31T02:09:27;12.50;99.90
30134;DHT22;16946;49.984;10.672;2023-10-31T02:09:59;12.60;99.90
30134;DHT22;16946;49.984;10.672;2023-10-31T02:10:29;12.60;99.90
30134;DHT22;16946;49.984;10.672;2023-10-31T02:11:00;12.60;99.90
30134;DHT22;16946;49.984;10.672;2023-10-31T02:11:31;12.60;99.90
30134;DHT22;16946;49.984;10.672;2023-10-31T02:12:01;12.60;99.90
30134;DHT22;16946;49.984;10.672;2023-10-31T02:12:36;12.60;99.90
30134;DHT22;16946;49.984;10.672;2023-10-31T02:13:15;12.60;99.90
30134;DHT22;16946;49.984;10.672;2023-10-31T02:13:46;12.60;99.90
30134;DHT22;16946;49.984;10.672;2023-10-31T02:14:17;12.60;99.90
30134;DHT22;16946;49.984;10.672;2023-10-31T02:14:48;12.60;99.90
30134;DHT22;16946;49.984;10.672;2023-10-31T02:15:18;12.50;99.90
30134;DHT22;16946;49.984;10.672;2023-10-31T02:15:49;12.50;99.90
30134;DHT22;16946;49.984;10.672;2023-10-31T02:16:19;12.50;99.90
30134;DHT22;16946;49.984;10.672;2023-10-31T02:16:50;12.50;99.90
30134;DHT22;16946;49.984;10.672;2023-10-31T02:17:21;12.50;99.90
30134;DHT22;16946;49.984;10.672;2023-10-31T02:17:51;12.50;99.90
30134;DHT22;16946;49.984;10.672;2023-10-31T02:18:22;12.50;99.90
30134;DHT22;16946;49.984;10.672;2023-10-31T02:18:53;12.50;99.90
30134;DHT22;16946;49.984;10.672;2023-10-31T02:19:23;12.50;99.90
30134;DHT22;16946;49.984;10.672;2023-10-31T02:19:54;12.40;99.90
30134;DHT22;16946;49.984;10.672;2023-10-31T02:20:25;12.50;99.90
30134;DHT22;16946;49.984;10.672;2023-10-31T02:20:55;12.50;99.90
30134;DHT22;16946;49.984;10.672;2023-10-31T02:21:27;12.50;99.90
30134;DHT22;16946;49.984;10.672;2023-10-31T02:22:00;12.50;99.90
30134;DHT22;16946;49.984;10.672;2023-10-31T02:22:30;12.50;99.90
30134;DHT22;16946;49.984;10.672;2023-10-31T02:23:02;12.50;99.90
30134;DHT22;16946;49.984;10.672;2023-10-31T02:23:32;12.50;99.90
30134;DHT22;16946;49.984;10.672;2023-10-31T02:24:03;12.50;99.90
30134;DHT22;16946;49.984;10.672;2023-10-31T02:24:33;12.50;99.90
30134;DHT22;16946;49.984;10.672;2023-10-31T02:25:16;12.40;99.90
30134;DHT22;16946;49.984;10.672;2023-10-31T02:25:47;12.40;99.90
30134;DHT22;16946;49.984;10.672;2023-10-31T02:26:17;12.40;99.90
30134;DHT22;16946;49.984;10.672;2023-10-31T02:26:48;12.30;99.90
30134;DHT22;16946;49.984;10.672;2023-10-31T02:27:18;12.40;99.90
30134;DHT22;16946;49.984;10.672;2023-10-31T02:27:49;12.40;99.90
30134;DHT22;16946;49.984;10.672;2023-10-31T02:28:20;12.40;99.90
30134;DHT22;16946;49.984;10.672;2023-10-31T02:28:50;12.40;99.90
30134;DHT22;16946;49.984;10.672;2023-10-31T02:29:21;12.40;99.90
30134;DHT22;16946;49.984;10.672;2023-10-31T02:29:51;12.30;99.90
30134;DHT22;16946;49.984;10.672;2023-10-31T02:30:22;12.30;99.90
30134;DHT22;16946;49.984;10.672;2023-10-31T02:30:54;12.30;99.90
30134;DHT22;16946;49.984;10.672;2023-10-31T02:31:25;12.30;99.90
30134;DHT22;16946;49.984;10.672;2023-10-31T02:31:56;12.30;99.90
30134;DHT22;16946;49.984;10.672;2023-10-31T02:32:27;12.20;99.90
30134;DHT22;16946;49.984;10.672;2023-10-31T02:32:57;12.20;99.90
30134;DHT22;16946;49.984;10.672;2023-10-31T02:33:28;12.20;99.90
30134;DHT22;16946;49.984;10.672;2023-10-31T02:33:58;12.20;99.90
30134;DHT22;16946;49.984;10.672;2023-10-31T02:34:29;12.20;99.90
30134;DHT22;16946;49.984;10.672;2023-10-31T02:34:59;12.20;99.90
30134;DHT22;16946;49.984;10.672;2023-10-31T02:35:30;12.20;99.90
30134;DHT22;16946;49.984;10.672;2023-10-31T02:36:00;12.10;99.90
30134;DHT22;16946;49.984;10.672;2023-10-31T02:36:31;12.10;99.90
30134;DHT22;16946;49.984;10.672;2023-10-31T02:37:04;12.10;99.90
30134;DHT22;16946;49.984;10.672;2023-10-31T02:37:35;12.10;99.90
30134;DHT22;16946;49.984;10.672;2023-10-31T02:38:06;12.10;99.90
30134;DHT22;16946;49.984;10.672;2023-10-31T02:38:37;12.10;99.90
30134;DHT22;16946;49.984;10.672;2023-10-31T02:39:07;12.10;99.90
30134;DHT22;16946;49.984;10.672;2023-10-31T02:39:38;12.10;99.90
30134;DHT22;16946;49.984;10.672;2023-10-31T02:40:09;12.10;99.90
30134;DHT22;16946;49.984;10.672;2023-10-31T02:40:40;12.10;99.90
30134;DHT22;16946;49.984;10.672;2023-10-31T02:41:10;12.10;99.90
30134;DHT22;16946;49.984;10.672;2023-10-31T02:41:41;12.10;99.90
30134;DHT22;16946;49.984;10.672;2023-10-31T02:42:11;12.10;99.90
30134;DHT22;16946;49.984;10.672;2023-10-31T02:42:42;12.10;99.90
30134;DHT22;16946;49.984;10.672;2023-10-31T02:43:12;12.10;99.90
30134;DHT22;16946;49.984;10.672;2023-10-31T02:43:43;12.10;99.90
30134;DHT22;16946;49.984;10.672;2023-10-31T02:44:15;12.00;99.90
30134;DHT22;16946;49.984;10.672;2023-10-31T02:44:46;12.00;99.90
30134;DHT22;16946;49.984;10.672;2023-10-31T02:45:17;12.00;99.90
30134;DHT22;16946;49.984;10.672;2023-10-31T02:45:47;12.10;99.90
30134;DHT22;16946;49.984;10.672;2023-10-31T02:46:18;12.10;99.90
30134;DHT22;16946;49.984;10.672;2023-10-31T02:46:49;12.00;99.90
30134;DHT22;16946;49.984;10.672;2023-10-31T02:47:20;12.00;99.90
30134;DHT22;16946;49.984;10.672;2023-10-31T02:47:50;12.00;99.90
30134;DHT22;16946;49.984;10.672;2023-10-31T02:48:21;12.00;99.90
30134;DHT22;16946;49.984;10.672;2023-10-31T02:48:51;12.00;99.90
30134;DHT22;16946;49.984;10.672;2023-10-31T02:49:22;12.00;99.90
30134;DHT22;16946;49.984;10.672;2023-10-31T02:49:52;12.00;99.90
30134;DHT22;16946;49.984;10.672;2023-10-31T02:50:23;11.90;99.90
30134;DHT22;16946;49.984;10.672;2023-10-31T02:50:53;12.00;99.90
30134;DHT22;16946;49.984;10.672;2023-10-31T02:51:24;12.00;99.90
30134;DHT22;16946;49.984;10.672;2023-10-31T02:51:54;12.00;99.90
30134;DHT22;16946;49.984;10.672;2023-10-31T02:52:25;11.90;99.90
30134;DHT22;16946;49.984;10.672;2023-10-31T02:52:55;11.90;99.90
30134;DHT22;16946;49.984;10.672;2023-10-31T02:53:26;11.90;99.90
30134;DHT22;16946;49.984;10.672;2023-10-31T02:53:56;11.90;99.90
30134;DHT22;16946;49.984;10.672;2023-10-31T02:54:27;11.90;99.90
30134;DHT22;16946;49.984;10.672;2023-10-31T02:54:57;11.90;99.90
30134;DHT22;16946;49.984;10.672;2023-10-31T02:55:28;11.80;99.90
30134;DHT22;16946;49.984;10.672;2023-10-31T02:55:58;11.90;99.90
30134;DHT22;16946;49.984;10.672;2023-10-31T02:56:29;11.90;99.90
30134;DHT22;16946;49.984;10.672;2023-10-31T02:57:00;11.90;99.90
30134;DHT22;16946;49.984;10.672;2023-10-31T02:57:30;11.80;99.90
30134;DHT22;16946;49.984;10.672;2023-10-31T02:58:01;11.80;99.90
30134;DHT22;16946;49.984;10.672;2023-10-31T02:58:31;11.80;99.90
30134;DHT22;16946;49.984;10.672;2023-10-31T02:59:02;11.90;99.90
30134;DHT22;16946;49.984;10.672;2023-10-31T02:59:32;11.80;99.90
30134;DHT22;16946;49.984;10.672;2023-10-31T03:00:03;11.80;99.90
30134;DHT22;16946;49.984;10.672;2023-10-31T03:00:34;11.80;99.90
30134;DHT22;16946;49.984;10.672;2023-10-31T03:01:05;11.80;99.90
30134;DHT22;16946;49.984;10.672;2023-10-31T03:01:35;11.80;99.90
30134;DHT22;16946;49.984;10.672;2023-10-31T03:02:06;11.80;99.90
30134;DHT22;16946;49.984;10.672;2023-10-31T03:02:37;11.80;99.90
30134;DHT22;16946;49.984;10.672;2023-10-31T03:03:07;11.80;99.90
30134;DHT22;16946;49.984;10.672;2023-10-31T03:03:38;11.80;99.90
30134;DHT22;16946;49.984;10.672;2023-10-31T03:04:08;11.80;99.90
30134;DHT22;16946;49.984;10.672;2023-10-31T03:04:39;11.80;99.90
30134;DHT22;16946;49.984;10.672;2023-10-31T03:05:09;11.80;99.90
30134;DHT22;16946;49.984;10.672;2023-10-31T03:05:40;11.80;99.90
30134;DHT22;16946;49.984;10.672;2023-10-31T03:06:10;11.80;99.90
30134;DHT22;16946;49.984;10.672;2023-10-31T03:06:41;11.70;99.90
30134;DHT22;16946;49.984;10.672;2023-10-31T03:07:12;11.80;99.90
30134;DHT22;16946;49.984;10.672;2023-10-31T03:07:42;11.80;99.90
30134;DHT22;16946;49.984;10.672;2023-10-31T03:08:14;11.70;99.90
30134;DHT22;16946;49.984;10.672;2023-10-31T03:08:45;11.70;99.90
30134;DHT22;16946;49.984;10.672;2023-10-31T03:09:15;11.80;99.90
30134;DHT22;16946;49.984;10.672;2023-10-31T03:09:46;11.70;99.90
30134;DHT22;16946;49.984;10.672;2023-10-31T03:10:16;11.70;99.90
30134;DHT22;16946;49.984;10.672;2023-10-31T03:10:48;11.70;99.90
30134;DHT22;16946;49.984;10.672;2023-10-31T03:11:24;11.70;99.90